sensor_id;sensor_type;location;lat;lon;timestamp;temperature;humidity
6930;DHT22;3504;52.616;13.238;2022-12-20T00:01:53;4.08;90.55
6930;DHT22;3504;52.616;13.238;2022-12-20T00:06:54;4.08;90.57
6930;DHT22;3504;52.616;13.238;2022-12-20T00:11:54;4.14;90.60
6930;DHT22;3504;52.616;13.238;2022-12-20T00:16:55;4.14;90.45
6930;DHT22;3504;52.616;13.238;2022-12-20T00:21:55;4.17;90.36
6930;DHT22;3504;52.616;13.238;2022-12-20T00:26:56;4.21;90.33
6930;DHT22;3504;52.616;13.238;2022-12-20T00:31:56;4.20;90.20
6930;DHT22;3504;52.616;13.238;2022-12-20T00:36:57;4.21;90.07
6930;DHT22;3504;52.616;13.238;2022-12-20T00:41:57;4.24;90.06
6930;DHT22;3504;52.616;13.238;2022-12-20T00:46:58;4.29;89.99
6930;DHT22;3504;52.616;13.238;2022-12-20T00:51:58;4.31;89.91
6930;DHT22;3504;52.616;13.238;2022-12-20T00:56:59;4.31;89.88
6930;DHT22;3504;52.616;13.238;2022-12-20T01:02:00;4.31;89.94
6930;DHT22;3504;52.616;13.238;2022-12-20T01:07:01;4.35;89.83
6930;DHT22;3504;52.616;13.238;2022-12-20T01:12:02;4.38;89.72
6930;DHT22;3504;52.616;13.238;2022-12-20T01:17:03;4.36;89.66
6930;DHT22;3504;52.616;13.238;2022-12-20T01:22:03;4.39;89.61
6930;DHT22;3504;52.616;13.238;2022-12-20T01:27:04;4.42;89.52
6930;DHT22;3504;52.616;13.238;2022-12-20T01:32:04;4.44;89.30
6930;DHT22;3504;52.616;13.238;2022-12-20T01:37:05;4.42;89.29
6930;DHT22;3504;52.616;13.238;2022-12-20T01:42:05;4.42;89.19
6930;DHT22;3504;52.616;13.238;2022-12-20T01:47:06;4.36;88.96
6930;DHT22;3504;52.616;13.238;2022-12-20T01:52:18;4.35;88.78
6930;DHT22;3504;52.616;13.238;2022-12-20T01:57:50;4.31;88.55
6930;DHT22;3504;52.616;13.238;2022-12-20T02:02:49;4.26;88.54
6930;DHT22;3504;52.616;13.238;2022-12-20T02:07:53;4.22;88.63
6930;DHT22;3504;52.616;13.238;2022-12-20T02:13:06;4.17;88.54
6930;DHT22;3504;52.616;13.238;2022-12-20T02:18:22;4.21;88.63
6930;DHT22;3504;52.616;13.238;2022-12-20T02:24:05;4.21;88.53
6930;DHT22;3504;52.616;13.238;2022-12-20T02:34:35;4.25;88.51
6930;DHT22;3504;52.616;13.238;2022-12-20T02:39:39;4.26;88.52
6930;DHT22;3504;52.616;13.238;2022-12-20T02:44:46;4.29;88.51
6930;DHT22;3504;52.616;13.238;2022-12-20T02:50:08;4.32;88.45
6930;DHT22;3504;52.616;13.238;2022-12-20T02:55:09;4.34;88.40
6930;DHT22;3504;52.616;13.238;2022-12-20T03:00:15;4.35;88.15
6930;DHT22;3504;52.616;13.238;2022-12-20T03:05:21;4.38;88.20
6930;DHT22;3504;52.616;13.238;2022-12-20T03:10:22;4.39;88.11
6930;DHT22;3504;52.616;13.238;2022-12-20T03:15:24;4.39;88.04
6930;DHT22;3504;52.616;13.238;2022-12-20T03:20:27;4.44;88.08
6930;DHT22;3504;52.616;13.238;2022-12-20T03:25:29;4.48;87.91
6930;DHT22;3504;52.616;13.238;2022-12-20T03:30:31;4.51;87.89
6930;DHT22;3504;52.616;13.238;2022-12-20T03:35:32;4.52;87.84
6930;DHT22;3504;52.616;13.238;2022-12-20T03:40:33;4.53;87.75
6930;DHT22;3504;52.616;13.238;2022-12-20T03:45:34;4.48;87.52
6930;DHT22;3504;52.616;13.238;2022-12-20T03:50:35;4.48;87.46
6930;DHT22;3504;52.616;13.238;2022-12-20T03:55:36;4.39;87.32
6930;DHT22;3504;52.616;13.238;2022-12-20T04:00:37;4.38;87.33
6930;DHT22;3504;52.616;13.238;2022-12-20T04:05:57;4.36;87.29
6930;DHT22;3504;52.616;13.238;2022-12-20T04:10:58;4.29;87.39
6930;DHT22;3504;52.616;13.238;2022-12-20T04:16:40;4.24;87.43
6930;DHT22;3504;52.616;13.238;2022-12-20T04:21:42;4.20;87.55
6930;DHT22;3504;52.616;13.238;2022-12-20T04:26:43;4.20;87.66
6930;DHT22;3504;52.616;13.238;2022-12-20T04:31:44;4.18;87.70
6930;DHT22;3504;52.616;13.238;2022-12-20T04:36:46;4.17;87.51
6930;DHT22;3504;52.616;13.238;2022-12-20T04:41:54;4.14;87.71
6930;DHT22;3504;52.616;13.238;2022-12-20T04:46:54;4.10;87.70
6930;DHT22;3504;52.616;13.238;2022-12-20T04:51:55;4.10;87.90
6930;DHT22;3504;52.616;13.238;2022-12-20T04:57:16;4.04;87.82
6930;DHT22;3504;52.616;13.238;2022-12-20T05:02:16;4.02;87.99
6930;DHT22;3504;52.616;13.238;2022-12-20T05:07:25;4.04;88.18
6930;DHT22;3504;52.616;13.238;2022-12-20T05:12:28;4.11;88.28
6930;DHT22;3504;52.616;13.238;2022-12-20T05:17:31;4.14;88.53
6930;DHT22;3504;52.616;13.238;2022-12-20T05:22:32;4.18;88.48
6930;DHT22;3504;52.616;13.238;2022-12-20T05:27:51;4.25;88.41
6930;DHT22;3504;52.616;13.238;2022-12-20T05:32:53;4.32;88.39
6930;DHT22;3504;52.616;13.238;2022-12-20T05:37:53;4.38;88.17
6930;DHT22;3504;52.616;13.238;2022-12-20T05:42:55;4.49;88.04
6930;DHT22;3504;52.616;13.238;2022-12-20T05:48:03;4.56;87.92
6930;DHT22;3504;52.616;13.238;2022-12-20T05:53:06;4.56;88.05
6930;DHT22;3504;52.616;13.238;2022-12-20T05:58:07;4.62;87.94
6930;DHT22;3504;52.616;13.238;2022-12-20T06:03:20;4.65;88.06
6930;DHT22;3504;52.616;13.238;2022-12-20T06:08:21;4.72;88.09
6930;DHT22;3504;52.616;13.238;2022-12-20T06:13:24;4.71;88.00
6930;DHT22;3504;52.616;13.238;2022-12-20T06:18:27;4.76;88.02
6930;DHT22;3504;52.616;13.238;2022-12-20T06:23:33;4.76;87.95
6930;DHT22;3504;52.616;13.238;2022-12-20T06:28:42;4.79;87.81
6930;DHT22;3504;52.616;13.238;2022-12-20T06:33:43;4.83;87.86
6930;DHT22;3504;52.616;13.238;2022-12-20T06:38:45;4.83;88.07
6930;DHT22;3504;52.616;13.238;2022-12-20T06:43:46;4.87;88.19
6930;DHT22;3504;52.616;13.238;2022-12-20T06:48:47;4.89;88.60
6930;DHT22;3504;52.616;13.238;2022-12-20T06:53:48;4.89;88.82
6930;DHT22;3504;52.616;13.238;2022-12-20T06:58:49;4.94;88.90
6930;DHT22;3504;52.616;13.238;2022-12-20T07:03:50;4.99;89.15
6930;DHT22;3504;52.616;13.238;2022-12-20T07:08:50;4.99;89.29
6930;DHT22;3504;52.616;13.238;2022-12-20T07:13:57;5.00;89.50
6930;DHT22;3504;52.616;13.238;2022-12-20T07:18:58;5.01;89.70
6930;DHT22;3504;52.616;13.238;2022-12-20T07:23:58;5.04;89.78
6930;DHT22;3504;52.616;13.238;2022-12-20T07:28:59;5.07;89.70
6930;DHT22;3504;52.616;13.238;2022-12-20T07:33:59;5.08;89.88
6930;DHT22;3504;52.616;13.238;2022-12-20T07:39:00;5.06;89.95
6930;DHT22;3504;52.616;13.238;2022-12-20T07:44:00;5.06;90.15
6930;DHT22;3504;52.616;13.238;2022-12-20T07:49:01;5.07;90.29
6930;DHT22;3504;52.616;13.238;2022-12-20T07:54:12;5.07;90.66
6930;DHT22;3504;52.616;13.238;2022-12-20T07:59:16;5.08;90.90
6930;DHT22;3504;52.616;13.238;2022-12-20T08:04:22;5.08;91.06
6930;DHT22;3504;52.616;13.238;2022-12-20T08:09:27;5.10;91.17
6930;DHT22;3504;52.616;13.238;2022-12-20T08:14:29;5.11;91.19
6930;DHT22;3504;52.616;13.238;2022-12-20T08:19:29;5.16;91.32
6930;DHT22;3504;52.616;13.238;2022-12-20T08:24:30;5.21;91.44
6930;DHT22;3504;52.616;13.238;2022-12-20T08:29:30;5.23;91.53
6930;DHT22;3504;52.616;13.238;2022-12-20T08:34:31;5.30;91.64
6930;DHT22;3504;52.616;13.238;2022-12-20T08:39:32;5.34;91.59
6930;DHT22;3504;52.616;13.238;2022-12-20T08:44:32;5.41;91.66
6930;DHT22;3504;52.616;13.238;2022-12-20T08:49:33;5.44;91.59
6930;DHT22;3504;52.616;13.238;2022-12-20T08:54:33;5.44;91.73
6930;DHT22;3504;52.616;13.238;2022-12-20T08:59:34;5.48;91.86
6930;DHT22;3504;52.616;13.238;2022-12-20T09:04:34;5.54;91.93
6930;DHT22;3504;52.616;13.238;2022-12-20T09:09:35;5.59;91.94
6930;DHT22;3504;52.616;13.238;2022-12-20T09:14:36;5.65;92.07
6930;DHT22;3504;52.616;13.238;2022-12-20T09:19:37;5.78;91.99
6930;DHT22;3504;52.616;13.238;2022-12-20T09:24:37;5.90;92.11
6930;DHT22;3504;52.616;13.238;2022-12-20T09:29:38;6.05;91.94
6930;DHT22;3504;52.616;13.238;2022-12-20T09:34:38;6.09;91.80
6930;DHT22;3504;52.616;13.238;2022-12-20T09:39:39;6.16;91.77
6930;DHT22;3504;52.616;13.238;2022-12-20T09:44:40;6.21;91.69
6930;DHT22;3504;52.616;13.238;2022-12-20T09:49:44;6.26;91.54
6930;DHT22;3504;52.616;13.238;2022-12-20T09:55:16;6.29;91.46
6930;DHT22;3504;52.616;13.238;2022-12-20T10:00:20;6.36;91.53
6930;DHT22;3504;52.616;13.238;2022-12-20T10:10:56;6.51;91.42
6930;DHT22;3504;52.616;13.238;2022-12-20T10:21:46;6.61;91.15
6930;DHT22;3504;52.616;13.238;2022-12-20T10:26:50;6.67;91.23
6930;DHT22;3504;52.616;13.238;2022-12-20T10:31:53;6.72;91.00
6930;DHT22;3504;52.616;13.238;2022-12-20T10:37:14;6.80;91.04
6930;DHT22;3504;52.616;13.238;2022-12-20T10:42:35;6.87;91.06
6930;DHT22;3504;52.616;13.238;2022-12-20T10:47:41;6.91;90.97
6930;DHT22;3504;52.616;13.238;2022-12-20T10:52:44;6.96;90.92
6930;DHT22;3504;52.616;13.238;2022-12-20T10:57:45;6.98;90.75
6930;DHT22;3504;52.616;13.238;2022-12-20T11:03:06;6.98;90.74
6930;DHT22;3504;52.616;13.238;2022-12-20T11:08:16;7.02;90.69
6930;DHT22;3504;52.616;13.238;2022-12-20T11:13:25;7.05;90.62
6930;DHT22;3504;52.616;13.238;2022-12-20T11:18:42;7.12;90.58
6930;DHT22;3504;52.616;13.238;2022-12-20T11:29:42;7.18;90.40
6930;DHT22;3504;52.616;13.238;2022-12-20T11:35:24;7.20;90.24
6930;DHT22;3504;52.616;13.238;2022-12-20T11:40:54;7.26;90.16
6930;DHT22;3504;52.616;13.238;2022-12-20T11:46:32;7.37;90.04
6930;DHT22;3504;52.616;13.238;2022-12-20T11:51:57;7.37;89.65
6930;DHT22;3504;52.616;13.238;2022-12-20T11:57:21;7.43;89.60
6930;DHT22;3504;52.616;13.238;2022-12-20T12:02:35;7.50;89.52
6930;DHT22;3504;52.616;13.238;2022-12-20T12:07:39;7.56;89.48
6930;DHT22;3504;52.616;13.238;2022-12-20T12:12:43;7.61;88.94
6930;DHT22;3504;52.616;13.238;2022-12-20T12:17:47;7.65;88.71
6930;DHT22;3504;52.616;13.238;2022-12-20T12:22:54;7.68;88.52
6930;DHT22;3504;52.616;13.238;2022-12-20T12:27:57;7.70;88.31
6930;DHT22;3504;52.616;13.238;2022-12-20T12:33:03;7.70;88.26
6930;DHT22;3504;52.616;13.238;2022-12-20T12:38:27;7.74;88.10
6930;DHT22;3504;52.616;13.238;2022-12-20T12:43:50;7.75;88.06
6930;DHT22;3504;52.616;13.238;2022-12-20T12:49:11;7.78;87.99
6930;DHT22;3504;52.616;13.238;2022-12-20T12:54:38;7.83;88.02
6930;DHT22;3504;52.616;13.238;2022-12-20T12:59:42;7.81;88.09
6930;DHT22;3504;52.616;13.238;2022-12-20T13:20:30;7.88;87.56
6930;DHT22;3504;52.616;13.238;2022-12-20T13:25:33;7.85;87.61
6930;DHT22;3504;52.616;13.238;2022-12-20T13:30:34;7.83;87.50
6930;DHT22;3504;52.616;13.238;2022-12-20T13:35:54;7.80;87.51
6930;DHT22;3504;52.616;13.238;2022-12-20T13:40:58;7.80;87.22
6930;DHT22;3504;52.616;13.238;2022-12-20T13:51:09;7.78;86.91
6930;DHT22;3504;52.616;13.238;2022-12-20T13:56:47;7.74;86.63
6930;DHT22;3504;52.616;13.238;2022-12-20T14:01:51;7.71;86.63
6930;DHT22;3504;52.616;13.238;2022-12-20T14:06:59;7.70;86.39
6930;DHT22;3504;52.616;13.238;2022-12-20T14:12:14;7.65;86.13
6930;DHT22;3504;52.616;13.238;2022-12-20T14:17:29;7.63;85.97
6930;DHT22;3504;52.616;13.238;2022-12-20T14:22:32;7.58;85.40
6930;DHT22;3504;52.616;13.238;2022-12-20T14:27:35;7.56;85.43
6930;DHT22;3504;52.616;13.238;2022-12-20T14:32:36;7.56;85.17
6930;DHT22;3504;52.616;13.238;2022-12-20T14:37:37;7.54;85.10
6930;DHT22;3504;52.616;13.238;2022-12-20T14:42:40;7.50;84.91
6930;DHT22;3504;52.616;13.238;2022-12-20T14:47:50;7.43;85.15
6930;DHT22;3504;52.616;13.238;2022-12-20T14:52:53;7.43;84.85
6930;DHT22;3504;52.616;13.238;2022-12-20T14:57:56;7.36;84.70
6930;DHT22;3504;52.616;13.238;2022-12-20T15:03:16;7.37;84.57
6930;DHT22;3504;52.616;13.238;2022-12-20T15:08:31;7.36;84.41
6930;DHT22;3504;52.616;13.238;2022-12-20T15:13:37;7.33;84.40
6930;DHT22;3504;52.616;13.238;2022-12-20T15:18:38;7.30;84.35
6930;DHT22;3504;52.616;13.238;2022-12-20T15:23:50;7.29;84.56
6930;DHT22;3504;52.616;13.238;2022-12-20T15:28:52;7.27;84.25
6930;DHT22;3504;52.616;13.238;2022-12-20T15:33:53;7.27;83.87
6930;DHT22;3504;52.616;13.238;2022-12-20T15:38:56;7.22;84.08
6930;DHT22;3504;52.616;13.238;2022-12-20T15:44:04;7.20;84.11
6930;DHT22;3504;52.616;13.238;2022-12-20T15:49:05;7.11;84.04
6930;DHT22;3504;52.616;13.238;2022-12-20T15:59:15;7.11;84.10
6930;DHT22;3504;52.616;13.238;2022-12-20T16:04:18;7.06;83.94
6930;DHT22;3504;52.616;13.238;2022-12-20T16:09:20;7.02;84.03
6930;DHT22;3504;52.616;13.238;2022-12-20T16:14:20;7.01;83.94
6930;DHT22;3504;52.616;13.238;2022-12-20T16:19:21;6.98;84.01
6930;DHT22;3504;52.616;13.238;2022-12-20T16:24:21;6.95;84.14
6930;DHT22;3504;52.616;13.238;2022-12-20T16:29:22;6.91;83.94
6930;DHT22;3504;52.616;13.238;2022-12-20T16:34:23;6.91;84.01
6930;DHT22;3504;52.616;13.238;2022-12-20T16:39:23;6.89;83.89
6930;DHT22;3504;52.616;13.238;2022-12-20T16:44:24;6.91;83.62
6930;DHT22;3504;52.616;13.238;2022-12-20T16:49:24;6.85;83.47
6930;DHT22;3504;52.616;13.238;2022-12-20T16:54:25;6.84;83.27
6930;DHT22;3504;52.616;13.238;2022-12-20T16:59:25;6.89;83.54
6930;DHT22;3504;52.616;13.238;2022-12-20T17:04:26;6.88;83.73
6930;DHT22;3504;52.616;13.238;2022-12-20T17:09:26;6.82;83.50
6930;DHT22;3504;52.616;13.238;2022-12-20T17:14:27;6.81;83.60
6930;DHT22;3504;52.616;13.238;2022-12-20T17:19:27;6.82;83.36
6930;DHT22;3504;52.616;13.238;2022-12-20T17:24:28;6.81;83.21
6930;DHT22;3504;52.616;13.238;2022-12-20T17:29:29;6.81;83.04
6930;DHT22;3504;52.616;13.238;2022-12-20T17:34:29;6.82;82.72
6930;DHT22;3504;52.616;13.238;2022-12-20T17:39:30;6.82;82.68
6930;DHT22;3504;52.616;13.238;2022-12-20T17:44:30;6.81;82.60
6930;DHT22;3504;52.616;13.238;2022-12-20T17:49:31;6.82;82.17
6930;DHT22;3504;52.616;13.238;2022-12-20T17:54:32;6.87;82.23
6930;DHT22;3504;52.616;13.238;2022-12-20T17:59:32;6.87;82.00
6930;DHT22;3504;52.616;13.238;2022-12-20T18:04:33;6.87;81.95
6930;DHT22;3504;52.616;13.238;2022-12-20T18:09:33;6.85;81.76
6930;DHT22;3504;52.616;13.238;2022-12-20T18:14:34;6.82;81.77
6930;DHT22;3504;52.616;13.238;2022-12-20T18:19:34;6.82;82.08
6930;DHT22;3504;52.616;13.238;2022-12-20T18:24:35;6.81;83.16
6930;DHT22;3504;52.616;13.238;2022-12-20T18:29:35;6.75;83.37
6930;DHT22;3504;52.616;13.238;2022-12-20T18:34:36;6.72;83.79
6930;DHT22;3504;52.616;13.238;2022-12-20T18:39:36;6.67;83.61
6930;DHT22;3504;52.616;13.238;2022-12-20T18:44:37;6.64;83.87
6930;DHT22;3504;52.616;13.238;2022-12-20T18:49:37;6.64;83.81
6930;DHT22;3504;52.616;13.238;2022-12-20T18:54:38;6.61;83.75
6930;DHT22;3504;52.616;13.238;2022-12-20T18:59:38;6.63;83.29
6930;DHT22;3504;52.616;13.238;2022-12-20T19:04:39;6.67;83.35
6930;DHT22;3504;52.616;13.238;2022-12-20T19:09:39;6.68;83.24
6930;DHT22;3504;52.616;13.238;2022-12-20T19:14:40;6.67;83.21
6930;DHT22;3504;52.616;13.238;2022-12-20T19:19:40;6.63;83.05
6930;DHT22;3504;52.616;13.238;2022-12-20T19:24:41;6.64;83.04
6930;DHT22;3504;52.616;13.238;2022-12-20T19:29:41;6.63;83.06
6930;DHT22;3504;52.616;13.238;2022-12-20T19:34:42;6.63;83.31
6930;DHT22;3504;52.616;13.238;2022-12-20T19:39:42;6.58;83.96
6930;DHT22;3504;52.616;13.238;2022-12-20T19:44:43;6.54;84.54
6930;DHT22;3504;52.616;13.238;2022-12-20T19:49:43;6.51;84.97
6930;DHT22;3504;52.616;13.238;2022-12-20T19:54:44;6.51;85.35
6930;DHT22;3504;52.616;13.238;2022-12-20T19:59:44;6.51;85.57
6930;DHT22;3504;52.616;13.238;2022-12-20T20:04:45;6.50;85.91
6930;DHT22;3504;52.616;13.238;2022-12-20T20:09:46;6.47;85.89
6930;DHT22;3504;52.616;13.238;2022-12-20T20:14:46;6.48;85.71
6930;DHT22;3504;52.616;13.238;2022-12-20T20:19:47;6.42;85.72
6930;DHT22;3504;52.616;13.238;2022-12-20T20:24:47;6.41;85.57
6930;DHT22;3504;52.616;13.238;2022-12-20T20:29:48;6.37;85.38
6930;DHT22;3504;52.616;13.238;2022-12-20T20:34:49;6.40;85.25
6930;DHT22;3504;52.616;13.238;2022-12-20T20:39:49;6.36;84.97
6930;DHT22;3504;52.616;13.238;2022-12-20T20:44:50;6.30;84.49
6930;DHT22;3504;52.616;13.238;2022-12-20T20:49:50;6.31;84.53
6930;DHT22;3504;52.616;13.238;2022-12-20T20:54:54;6.33;84.43
6930;DHT22;3504;52.616;13.238;2022-12-20T20:59:58;6.37;84.41
6930;DHT22;3504;52.616;13.238;2022-12-20T21:04:58;6.36;84.19
6930;DHT22;3504;52.616;13.238;2022-12-20T21:09:59;6.37;84.16
6930;DHT22;3504;52.616;13.238;2022-12-20T21:14:59;6.38;83.89
6930;DHT22;3504;52.616;13.238;2022-12-20T21:20:01;6.40;83.91
6930;DHT22;3504;52.616;13.238;2022-12-20T21:25:04;6.40;83.83
6930;DHT22;3504;52.616;13.238;2022-12-20T21:30:06;6.41;83.76
6930;DHT22;3504;52.616;13.238;2022-12-20T21:35:07;6.45;83.75
6930;DHT22;3504;52.616;13.238;2022-12-20T21:40:08;6.38;84.01
6930;DHT22;3504;52.616;13.238;2022-12-20T21:45:10;6.34;84.19
6930;DHT22;3504;52.616;13.238;2022-12-20T21:50:11;6.34;84.27
6930;DHT22;3504;52.616;13.238;2022-12-20T21:55:13;6.34;84.29
6930;DHT22;3504;52.616;13.238;2022-12-20T22:00:14;6.30;84.19
6930;DHT22;3504;52.616;13.238;2022-12-20T22:05:15;6.31;84.27
6930;DHT22;3504;52.616;13.238;2022-12-20T22:10:15;6.30;84.24
6930;DHT22;3504;52.616;13.238;2022-12-20T22:15:16;6.33;84.13
6930;DHT22;3504;52.616;13.238;2022-12-20T22:20:16;6.30;83.95
6930;DHT22;3504;52.616;13.238;2022-12-20T22:25:17;6.31;83.52
6930;DHT22;3504;52.616;13.238;2022-12-20T22:30:18;6.33;83.63
6930;DHT22;3504;52.616;13.238;2022-12-20T22:35:18;6.30;83.67
6930;DHT22;3504;52.616;13.238;2022-12-20T22:40:19;6.33;83.81
6930;DHT22;3504;52.616;13.238;2022-12-20T22:45:19;6.29;83.83
6930;DHT22;3504;52.616;13.238;2022-12-20T22:50:20;6.26;83.90
6930;DHT22;3504;52.616;13.238;2022-12-20T22:55:20;6.26;83.81
6930;DHT22;3504;52.616;13.238;2022-12-20T23:00:21;6.23;83.78
6930;DHT22;3504;52.616;13.238;2022-12-20T23:05:21;6.20;83.83
6930;DHT22;3504;52.616;13.238;2022-12-20T23:10:22;6.23;84.04
6930;DHT22;3504;52.616;13.238;2022-12-20T23:15:41;6.20;84.34
6930;DHT22;3504;52.616;13.238;2022-12-20T23:20:48;6.20;84.52
6930;DHT22;3504;52.616;13.238;2022-12-20T23:26:14;6.13;84.57
6930;DHT22;3504;52.616;13.238;2022-12-20T23:31:15;6.13;84.70
6930;DHT22;3504;52.616;13.238;2022-12-20T23:36:16;6.10;84.77
6930;DHT22;3504;52.616;13.238;2022-12-20T23:41:16;6.11;84.94
6930;DHT22;3504;52.616;13.238;2022-12-20T23:46:18;6.02;85.37
6930;DHT22;3504;52.616;13.238;2022-12-20T23:51:21;6.00;85.57
6930;DHT22;3504;52.616;13.238;2022-12-20T23:56:22;5.99;85.83
